sensor_id;sensor_type;location;lat;lon;timestamp;temperature;humidity
63537;DHT22;49686;51.880;5.632;2023-01-19T00:00:35;0.20;99.90
63537;DHT22;49686;51.880;5.632;2023-01-19T00:03:02;0.20;99.90
63537;DHT22;49686;51.880;5.632;2023-01-19T00:05:29;0.10;99.90
63537;DHT22;49686;51.880;5.632;2023-01-19T00:07:56;0.10;99.90
63537;DHT22;49686;51.880;5.632;2023-01-19T00:10:27;0.00;99.90
63537;DHT22;49686;51.880;5.632;2023-01-19T00:12:55;0.00;99.90
63537;DHT22;49686;51.880;5.632;2023-01-19T00:15:22;0.00;99.90
63537;DHT22;49686;51.880;5.632;2023-01-19T00:17:49;-0.10;99.90
63537;DHT22;49686;51.880;5.632;2023-01-19T00:20:16;-0.10;99.90
63537;DHT22;49686;51.880;5.632;2023-01-19T00:22:43;-0.20;99.90
63537;DHT22;49686;51.880;5.632;2023-01-19T00:25:09;-0.10;99.90
63537;DHT22;49686;51.880;5.632;2023-01-19T00:27:37;-0.20;99.90
63537;DHT22;49686;51.880;5.632;2023-01-19T00:30:05;-0.20;99.90
63537;DHT22;49686;51.880;5.632;2023-01-19T00:32:32;-0.10;99.90
63537;DHT22;49686;51.880;5.632;2023-01-19T00:34:59;-0.10;99.90
63537;DHT22;49686;51.880;5.632;2023-01-19T00:37:26;0.00;99.90
63537;DHT22;49686;51.880;5.632;2023-01-19T00:39:53;0.00;99.90
63537;DHT22;49686;51.880;5.632;2023-01-19T00:42:20;0.00;99.90
63537;DHT22;49686;51.880;5.632;2023-01-19T00:44:48;0.00;99.90
63537;DHT22;49686;51.880;5.632;2023-01-19T00:47:15;0.00;99.90
63537;DHT22;49686;51.880;5.632;2023-01-19T00:49:42;0.00;99.90
63537;DHT22;49686;51.880;5.632;2023-01-19T00:52:09;0.10;99.90
63537;DHT22;49686;51.880;5.632;2023-01-19T00:54:36;0.10;99.90
63537;DHT22;49686;51.880;5.632;2023-01-19T00:57:03;0.10;99.90
63537;DHT22;49686;51.880;5.632;2023-01-19T00:59:29;0.10;99.90
63537;DHT22;49686;51.880;5.632;2023-01-19T01:01:59;0.00;99.90
63537;DHT22;49686;51.880;5.632;2023-01-19T01:04:26;-0.10;99.90
63537;DHT22;49686;51.880;5.632;2023-01-19T01:06:53;-0.10;99.90
63537;DHT22;49686;51.880;5.632;2023-01-19T01:09:20;0.00;99.90
63537;DHT22;49686;51.880;5.632;2023-01-19T01:11:47;0.00;99.90
63537;DHT22;49686;51.880;5.632;2023-01-19T01:14:14;0.00;99.90
63537;DHT22;49686;51.880;5.632;2023-01-19T01:16:41;0.10;99.90
63537;DHT22;49686;51.880;5.632;2023-01-19T01:19:11;0.10;99.90
63537;DHT22;49686;51.880;5.632;2023-01-19T01:21:38;0.10;99.90
63537;DHT22;49686;51.880;5.632;2023-01-19T01:24:08;0.00;99.90
63537;DHT22;49686;51.880;5.632;2023-01-19T01:26:35;0.00;99.90
63537;DHT22;49686;51.880;5.632;2023-01-19T01:29:03;-0.10;99.90
63537;DHT22;49686;51.880;5.632;2023-01-19T01:31:30;-0.20;99.90
63537;DHT22;49686;51.880;5.632;2023-01-19T01:33:56;-0.20;99.90
63537;DHT22;49686;51.880;5.632;2023-01-19T01:36:25;-0.20;99.90
63537;DHT22;49686;51.880;5.632;2023-01-19T01:38:51;-0.20;99.90
63537;DHT22;49686;51.880;5.632;2023-01-19T01:41:18;-0.30;99.90
63537;DHT22;49686;51.880;5.632;2023-01-19T01:43:49;-0.40;99.90
63537;DHT22;49686;51.880;5.632;2023-01-19T01:46:16;-0.50;99.90
63537;DHT22;49686;51.880;5.632;2023-01-19T01:48:47;-0.60;99.90
63537;DHT22;49686;51.880;5.632;2023-01-19T01:51:20;-0.70;99.90
63537;DHT22;49686;51.880;5.632;2023-01-19T01:53:54;-0.70;99.90
63537;DHT22;49686;51.880;5.632;2023-01-19T01:56:25;-0.80;99.90
63537;DHT22;49686;51.880;5.632;2023-01-19T01:58:54;-0.80;99.90
63537;DHT22;49686;51.880;5.632;2023-01-19T02:01:21;-0.90;99.90
63537;DHT22;49686;51.880;5.632;2023-01-19T02:03:49;-1.00;99.90
63537;DHT22;49686;51.880;5.632;2023-01-19T02:06:16;-1.00;99.90
63537;DHT22;49686;51.880;5.632;2023-01-19T02:08:52;-1.10;99.90
63537;DHT22;49686;51.880;5.632;2023-01-19T02:11:21;-1.10;99.90
63537;DHT22;49686;51.880;5.632;2023-01-19T02:13:48;-1.10;99.90
63537;DHT22;49686;51.880;5.632;2023-01-19T02:16:15;-1.00;99.90
63537;DHT22;49686;51.880;5.632;2023-01-19T02:18:43;-1.00;99.90
63537;DHT22;49686;51.880;5.632;2023-01-19T02:21:13;-1.00;99.90
63537;DHT22;49686;51.880;5.632;2023-01-19T02:23:45;-1.10;99.90
63537;DHT22;49686;51.880;5.632;2023-01-19T02:26:15;-1.00;99.90
63537;DHT22;49686;51.880;5.632;2023-01-19T02:28:46;-1.00;99.90
63537;DHT22;49686;51.880;5.632;2023-01-19T02:31:14;-1.00;99.90
63537;DHT22;49686;51.880;5.632;2023-01-19T02:33:40;-1.00;99.90
63537;DHT22;49686;51.880;5.632;2023-01-19T02:36:09;-1.20;99.90
63537;DHT22;49686;51.880;5.632;2023-01-19T02:38:38;-1.20;99.90
63537;DHT22;49686;51.880;5.632;2023-01-19T02:41:09;-1.40;99.90
63537;DHT22;49686;51.880;5.632;2023-01-19T02:43:37;-1.50;99.90
63537;DHT22;49686;51.880;5.632;2023-01-19T02:46:07;-1.50;99.90
63537;DHT22;49686;51.880;5.632;2023-01-19T02:48:34;-1.50;99.90
63537;DHT22;49686;51.880;5.632;2023-01-19T02:51:02;-1.50;99.90
63537;DHT22;49686;51.880;5.632;2023-01-19T02:53:46;-1.40;99.90
63537;DHT22;49686;51.880;5.632;2023-01-19T02:56:47;-1.40;99.90
63537;DHT22;49686;51.880;5.632;2023-01-19T02:59:25;-1.40;99.90
63537;DHT22;49686;51.880;5.632;2023-01-19T03:02:18;-1.40;99.90
63537;DHT22;49686;51.880;5.632;2023-01-19T03:04:56;-1.30;99.90
63537;DHT22;49686;51.880;5.632;2023-01-19T03:07:32;-1.30;99.90
63537;DHT22;49686;51.880;5.632;2023-01-19T03:10:04;-1.20;99.90
63537;DHT22;49686;51.880;5.632;2023-01-19T03:12:39;-1.20;99.90
63537;DHT22;49686;51.880;5.632;2023-01-19T03:15:16;-1.30;99.90
63537;DHT22;49686;51.880;5.632;2023-01-19T03:17:44;-1.30;99.90
63537;DHT22;49686;51.880;5.632;2023-01-19T03:20:16;-1.20;99.90
63537;DHT22;49686;51.880;5.632;2023-01-19T03:22:44;-1.20;99.90
63537;DHT22;49686;51.880;5.632;2023-01-19T03:25:14;-1.20;99.90
63537;DHT22;49686;51.880;5.632;2023-01-19T03:27:44;-1.20;99.90
63537;DHT22;49686;51.880;5.632;2023-01-19T03:30:15;-1.30;99.90
63537;DHT22;49686;51.880;5.632;2023-01-19T03:32:47;-1.40;99.90
63537;DHT22;49686;51.880;5.632;2023-01-19T03:35:17;-1.40;99.90
63537;DHT22;49686;51.880;5.632;2023-01-19T03:37:47;-1.40;99.90
63537;DHT22;49686;51.880;5.632;2023-01-19T03:40:16;-1.30;99.90
63537;DHT22;49686;51.880;5.632;2023-01-19T03:42:45;-1.30;99.90
63537;DHT22;49686;51.880;5.632;2023-01-19T03:45:13;-1.40;99.90
63537;DHT22;49686;51.880;5.632;2023-01-19T03:47:40;-1.30;99.90
63537;DHT22;49686;51.880;5.632;2023-01-19T03:50:13;-1.40;99.90
63537;DHT22;49686;51.880;5.632;2023-01-19T03:52:43;-1.40;99.90
63537;DHT22;49686;51.880;5.632;2023-01-19T03:55:10;-1.30;99.90
63537;DHT22;49686;51.880;5.632;2023-01-19T03:57:37;-1.30;99.90
63537;DHT22;49686;51.880;5.632;2023-01-19T04:00:06;-1.30;99.90
63537;DHT22;49686;51.880;5.632;2023-01-19T04:02:33;-1.30;99.90
63537;DHT22;49686;51.880;5.632;2023-01-19T04:05:00;-1.30;99.90
63537;DHT22;49686;51.880;5.632;2023-01-19T04:07:27;-1.20;99.90
63537;DHT22;49686;51.880;5.632;2023-01-19T04:09:53;-1.30;99.90
63537;DHT22;49686;51.880;5.632;2023-01-19T04:12:20;-1.30;99.90
63537;DHT22;49686;51.880;5.632;2023-01-19T04:14:47;-1.20;99.90
63537;DHT22;49686;51.880;5.632;2023-01-19T04:17:15;-1.20;99.90
63537;DHT22;49686;51.880;5.632;2023-01-19T04:19:42;-1.20;99.90
63537;DHT22;49686;51.880;5.632;2023-01-19T04:22:09;-1.10;99.90
63537;DHT22;49686;51.880;5.632;2023-01-19T04:24:35;-1.10;99.90
63537;DHT22;49686;51.880;5.632;2023-01-19T04:27:02;-1.00;99.90
63537;DHT22;49686;51.880;5.632;2023-01-19T04:29:29;-1.00;99.90
63537;DHT22;49686;51.880;5.632;2023-01-19T04:31:56;-1.10;99.90
63537;DHT22;49686;51.880;5.632;2023-01-19T04:34:24;-1.10;99.90
63537;DHT22;49686;51.880;5.632;2023-01-19T04:36:50;-1.00;99.90
63537;DHT22;49686;51.880;5.632;2023-01-19T04:39:17;-1.00;99.90
63537;DHT22;49686;51.880;5.632;2023-01-19T04:41:44;-1.10;99.90
63537;DHT22;49686;51.880;5.632;2023-01-19T04:44:11;-1.00;99.90
63537;DHT22;49686;51.880;5.632;2023-01-19T04:46:37;-1.00;99.90
63537;DHT22;49686;51.880;5.632;2023-01-19T04:49:04;-1.00;99.90
63537;DHT22;49686;51.880;5.632;2023-01-19T04:51:32;-1.00;99.90
63537;DHT22;49686;51.880;5.632;2023-01-19T04:53:59;-1.00;99.90
63537;DHT22;49686;51.880;5.632;2023-01-19T04:56:26;-1.00;99.90
63537;DHT22;49686;51.880;5.632;2023-01-19T04:58:53;-1.00;99.90
63537;DHT22;49686;51.880;5.632;2023-01-19T05:01:20;-1.00;99.90
63537;DHT22;49686;51.880;5.632;2023-01-19T05:03:47;-0.90;99.90
63537;DHT22;49686;51.880;5.632;2023-01-19T05:06:13;-1.00;99.90
63537;DHT22;49686;51.880;5.632;2023-01-19T05:08:42;-1.00;99.90
63537;DHT22;49686;51.880;5.632;2023-01-19T05:11:11;-1.00;99.90
63537;DHT22;49686;51.880;5.632;2023-01-19T05:13:37;-0.90;99.90
63537;DHT22;49686;51.880;5.632;2023-01-19T05:16:05;-0.90;99.90
63537;DHT22;49686;51.880;5.632;2023-01-19T05:18:32;-0.90;99.90
63537;DHT22;49686;51.880;5.632;2023-01-19T05:21:00;-0.90;99.90
63537;DHT22;49686;51.880;5.632;2023-01-19T05:23:27;-0.90;99.90
63537;DHT22;49686;51.880;5.632;2023-01-19T05:25:55;-0.90;99.90
63537;DHT22;49686;51.880;5.632;2023-01-19T05:28:22;-0.90;99.90
63537;DHT22;49686;51.880;5.632;2023-01-19T05:30:48;-0.80;99.90
63537;DHT22;49686;51.880;5.632;2023-01-19T05:33:15;-0.80;99.90
63537;DHT22;49686;51.880;5.632;2023-01-19T05:35:42;-0.80;99.90
63537;DHT22;49686;51.880;5.632;2023-01-19T05:38:09;-0.80;99.90
63537;DHT22;49686;51.880;5.632;2023-01-19T05:40:35;-0.70;99.90
63537;DHT22;49686;51.880;5.632;2023-01-19T05:43:04;-0.70;99.90
63537;DHT22;49686;51.880;5.632;2023-01-19T05:45:31;-0.70;99.90
63537;DHT22;49686;51.880;5.632;2023-01-19T05:47:58;-0.60;99.90
63537;DHT22;49686;51.880;5.632;2023-01-19T05:50:25;-0.60;99.90
63537;DHT22;49686;51.880;5.632;2023-01-19T05:52:52;-0.50;99.90
63537;DHT22;49686;51.880;5.632;2023-01-19T05:55:19;-0.50;99.90
63537;DHT22;49686;51.880;5.632;2023-01-19T05:57:46;-0.50;99.90
63537;DHT22;49686;51.880;5.632;2023-01-19T06:00:15;-0.50;99.90
63537;DHT22;49686;51.880;5.632;2023-01-19T06:02:42;-0.50;99.90
63537;DHT22;49686;51.880;5.632;2023-01-19T06:05:09;-0.50;99.90
63537;DHT22;49686;51.880;5.632;2023-01-19T06:07:35;-0.50;99.90
63537;DHT22;49686;51.880;5.632;2023-01-19T06:10:03;-0.50;99.90
63537;DHT22;49686;51.880;5.632;2023-01-19T06:12:30;-0.60;99.90
63537;DHT22;49686;51.880;5.632;2023-01-19T06:14:56;-0.50;99.90
63537;DHT22;49686;51.880;5.632;2023-01-19T06:17:24;-0.50;99.90
63537;DHT22;49686;51.880;5.632;2023-01-19T06:19:52;-0.50;99.90
63537;DHT22;49686;51.880;5.632;2023-01-19T06:22:19;-0.40;99.90
63537;DHT22;49686;51.880;5.632;2023-01-19T06:24:46;-0.40;99.90
63537;DHT22;49686;51.880;5.632;2023-01-19T06:27:13;-0.40;99.90
63537;DHT22;49686;51.880;5.632;2023-01-19T06:29:39;-0.30;99.90
63537;DHT22;49686;51.880;5.632;2023-01-19T06:32:06;-0.40;99.90
63537;DHT22;49686;51.880;5.632;2023-01-19T06:34:34;-0.50;99.90
63537;DHT22;49686;51.880;5.632;2023-01-19T06:37:01;-0.40;99.90
63537;DHT22;49686;51.880;5.632;2023-01-19T06:39:28;-0.50;99.90
63537;DHT22;49686;51.880;5.632;2023-01-19T06:41:54;-0.50;99.90
63537;DHT22;49686;51.880;5.632;2023-01-19T06:44:21;-0.40;99.90
63537;DHT22;49686;51.880;5.632;2023-01-19T06:46:48;-0.50;99.90
63537;DHT22;49686;51.880;5.632;2023-01-19T06:49:15;-0.50;99.90
63537;DHT22;49686;51.880;5.632;2023-01-19T06:51:43;-0.50;99.90
63537;DHT22;49686;51.880;5.632;2023-01-19T06:54:10;-0.50;99.90
63537;DHT22;49686;51.880;5.632;2023-01-19T06:56:37;-0.50;99.90
63537;DHT22;49686;51.880;5.632;2023-01-19T06:59:04;-0.40;99.90
63537;DHT22;49686;51.880;5.632;2023-01-19T07:01:31;-0.40;99.90
63537;DHT22;49686;51.880;5.632;2023-01-19T07:03:58;-0.60;99.90
63537;DHT22;49686;51.880;5.632;2023-01-19T07:06:25;-0.50;99.90
63537;DHT22;49686;51.880;5.632;2023-01-19T07:08:54;-0.50;99.90
63537;DHT22;49686;51.880;5.632;2023-01-19T07:11:21;-0.50;99.90
63537;DHT22;49686;51.880;5.632;2023-01-19T07:13:58;-0.50;99.90
63537;DHT22;49686;51.880;5.632;2023-01-19T07:16:25;-0.40;99.90
63537;DHT22;49686;51.880;5.632;2023-01-19T07:18:52;-0.50;99.90
63537;DHT22;49686;51.880;5.632;2023-01-19T07:21:19;-0.40;99.90
63537;DHT22;49686;51.880;5.632;2023-01-19T07:23:47;-0.50;99.90
63537;DHT22;49686;51.880;5.632;2023-01-19T07:26:15;-0.50;99.90
63537;DHT22;49686;51.880;5.632;2023-01-19T07:28:42;-0.50;99.90
63537;DHT22;49686;51.880;5.632;2023-01-19T07:31:09;-0.40;99.90
63537;DHT22;49686;51.880;5.632;2023-01-19T07:33:36;-0.40;99.90
63537;DHT22;49686;51.880;5.632;2023-01-19T07:36:03;-0.50;99.90
63537;DHT22;49686;51.880;5.632;2023-01-19T07:38:30;-0.50;99.90
63537;DHT22;49686;51.880;5.632;2023-01-19T07:41:00;-0.50;99.90
63537;DHT22;49686;51.880;5.632;2023-01-19T07:43:28;-0.50;99.90
63537;DHT22;49686;51.880;5.632;2023-01-19T07:45:55;-0.50;99.90
63537;DHT22;49686;51.880;5.632;2023-01-19T07:48:22;-0.50;99.90
63537;DHT22;49686;51.880;5.632;2023-01-19T07:50:49;-0.50;99.90
63537;DHT22;49686;51.880;5.632;2023-01-19T07:53:15;-0.50;99.90
63537;DHT22;49686;51.880;5.632;2023-01-19T07:55:43;-0.50;99.90
63537;DHT22;49686;51.880;5.632;2023-01-19T07:58:10;-0.50;99.90
63537;DHT22;49686;51.880;5.632;2023-01-19T08:00:38;-0.50;99.90
63537;DHT22;49686;51.880;5.632;2023-01-19T08:03:05;-0.50;99.90
63537;DHT22;49686;51.880;5.632;2023-01-19T08:05:32;-0.50;99.90
63537;DHT22;49686;51.880;5.632;2023-01-19T08:07:59;-0.50;99.90
63537;DHT22;49686;51.880;5.632;2023-01-19T08:10:26;-0.40;99.90
63537;DHT22;49686;51.880;5.632;2023-01-19T08:12:54;-0.50;99.90
63537;DHT22;49686;51.880;5.632;2023-01-19T08:15:22;-0.50;99.90
63537;DHT22;49686;51.880;5.632;2023-01-19T08:17:58;-0.50;99.90
63537;DHT22;49686;51.880;5.632;2023-01-19T08:20:26;-0.60;99.90
63537;DHT22;49686;51.880;5.632;2023-01-19T08:22:54;-0.70;99.90
63537;DHT22;49686;51.880;5.632;2023-01-19T08:25:21;-0.60;99.90
63537;DHT22;49686;51.880;5.632;2023-01-19T08:27:47;-0.50;99.90
63537;DHT22;49686;51.880;5.632;2023-01-19T08:30:15;-0.50;99.90
63537;DHT22;49686;51.880;5.632;2023-01-19T08:32:42;-0.40;99.90
63537;DHT22;49686;51.880;5.632;2023-01-19T08:35:10;-0.30;99.90
63537;DHT22;49686;51.880;5.632;2023-01-19T08:37:38;-0.10;99.90
63537;DHT22;49686;51.880;5.632;2023-01-19T08:40:06;0.00;99.90
63537;DHT22;49686;51.880;5.632;2023-01-19T08:42:33;0.20;99.90
63537;DHT22;49686;51.880;5.632;2023-01-19T08:45:00;0.30;99.90
63537;DHT22;49686;51.880;5.632;2023-01-19T08:47:26;0.30;99.90
63537;DHT22;49686;51.880;5.632;2023-01-19T08:49:54;0.40;99.90
63537;DHT22;49686;51.880;5.632;2023-01-19T08:52:23;0.50;99.90
63537;DHT22;49686;51.880;5.632;2023-01-19T08:54:49;0.50;99.90
63537;DHT22;49686;51.880;5.632;2023-01-19T08:57:16;0.50;99.90
63537;DHT22;49686;51.880;5.632;2023-01-19T08:59:43;0.50;99.90
63537;DHT22;49686;51.880;5.632;2023-01-19T09:02:10;0.50;99.90
63537;DHT22;49686;51.880;5.632;2023-01-19T09:04:36;0.60;99.90
63537;DHT22;49686;51.880;5.632;2023-01-19T09:07:03;0.60;99.90
63537;DHT22;49686;51.880;5.632;2023-01-19T09:09:36;0.70;99.90
63537;DHT22;49686;51.880;5.632;2023-01-19T09:12:03;0.70;99.90
63537;DHT22;49686;51.880;5.632;2023-01-19T09:14:30;0.60;99.90
63537;DHT22;49686;51.880;5.632;2023-01-19T09:16:57;0.60;99.90
63537;DHT22;49686;51.880;5.632;2023-01-19T09:19:24;0.60;99.90
63537;DHT22;49686;51.880;5.632;2023-01-19T09:21:52;0.50;99.90
63537;DHT22;49686;51.880;5.632;2023-01-19T09:24:20;0.70;99.90
63537;DHT22;49686;51.880;5.632;2023-01-19T09:26:48;0.90;99.90
63537;DHT22;49686;51.880;5.632;2023-01-19T09:29:17;1.20;99.90
63537;DHT22;49686;51.880;5.632;2023-01-19T09:31:44;1.40;99.90
63537;DHT22;49686;51.880;5.632;2023-01-19T09:34:11;1.40;99.90
63537;DHT22;49686;51.880;5.632;2023-01-19T09:36:38;1.30;99.90
63537;DHT22;49686;51.880;5.632;2023-01-19T09:39:04;1.20;99.90
63537;DHT22;49686;51.880;5.632;2023-01-19T09:41:33;1.20;99.90
63537;DHT22;49686;51.880;5.632;2023-01-19T09:44:01;1.30;99.90
63537;DHT22;49686;51.880;5.632;2023-01-19T09:46:33;1.40;99.90
63537;DHT22;49686;51.880;5.632;2023-01-19T09:49:02;1.60;99.90
63537;DHT22;49686;51.880;5.632;2023-01-19T09:51:34;1.70;99.90
63537;DHT22;49686;51.880;5.632;2023-01-19T09:54:06;1.90;99.90
63537;DHT22;49686;51.880;5.632;2023-01-19T09:56:36;1.70;99.90
63537;DHT22;49686;51.880;5.632;2023-01-19T09:59:17;1.60;99.90
63537;DHT22;49686;51.880;5.632;2023-01-19T10:01:53;1.50;99.90
63537;DHT22;49686;51.880;5.632;2023-01-19T10:04:29;1.60;99.90
63537;DHT22;49686;51.880;5.632;2023-01-19T10:07:05;1.50;99.90
63537;DHT22;49686;51.880;5.632;2023-01-19T10:09:39;1.40;99.90
63537;DHT22;49686;51.880;5.632;2023-01-19T10:12:15;1.30;99.90
63537;DHT22;49686;51.880;5.632;2023-01-19T10:14:54;1.20;99.90
63537;DHT22;49686;51.880;5.632;2023-01-19T10:17:36;1.00;99.90
63537;DHT22;49686;51.880;5.632;2023-01-19T10:20:12;0.90;99.90
63537;DHT22;49686;51.880;5.632;2023-01-19T10:22:43;1.10;99.90
63537;DHT22;49686;51.880;5.632;2023-01-19T10:25:16;1.00;99.90
63537;DHT22;49686;51.880;5.632;2023-01-19T10:27:44;1.00;99.90
63537;DHT22;49686;51.880;5.632;2023-01-19T10:30:18;1.00;99.90
63537;DHT22;49686;51.880;5.632;2023-01-19T10:32:47;1.00;99.90
63537;DHT22;49686;51.880;5.632;2023-01-19T10:35:15;1.00;99.90
63537;DHT22;49686;51.880;5.632;2023-01-19T10:37:42;1.10;99.90
63537;DHT22;49686;51.880;5.632;2023-01-19T10:40:19;1.30;99.90
63537;DHT22;49686;51.880;5.632;2023-01-19T10:42:48;1.40;99.90
63537;DHT22;49686;51.880;5.632;2023-01-19T10:45:18;1.40;99.90
63537;DHT22;49686;51.880;5.632;2023-01-19T10:47:47;1.60;99.90
63537;DHT22;49686;51.880;5.632;2023-01-19T10:50:23;1.40;99.90
63537;DHT22;49686;51.880;5.632;2023-01-19T10:52:53;1.30;99.90
63537;DHT22;49686;51.880;5.632;2023-01-19T10:55:24;1.40;99.90
63537;DHT22;49686;51.880;5.632;2023-01-19T10:57:52;1.40;99.90
63537;DHT22;49686;51.880;5.632;2023-01-19T11:00:35;1.40;99.90
63537;DHT22;49686;51.880;5.632;2023-01-19T11:03:02;1.50;99.90
63537;DHT22;49686;51.880;5.632;2023-01-19T11:05:32;1.60;99.90
63537;DHT22;49686;51.880;5.632;2023-01-19T11:07:59;1.80;99.90
63537;DHT22;49686;51.880;5.632;2023-01-19T11:10:27;1.90;99.90
63537;DHT22;49686;51.880;5.632;2023-01-19T11:12:57;1.90;99.90
63537;DHT22;49686;51.880;5.632;2023-01-19T11:15:31;1.90;99.90
63537;DHT22;49686;51.880;5.632;2023-01-19T11:17:59;2.00;99.90
63537;DHT22;49686;51.880;5.632;2023-01-19T11:20:28;1.90;99.90
63537;DHT22;49686;51.880;5.632;2023-01-19T11:23:09;2.00;99.90
63537;DHT22;49686;51.880;5.632;2023-01-19T11:25:45;2.10;99.90
63537;DHT22;49686;51.880;5.632;2023-01-19T11:28:16;2.10;99.90
63537;DHT22;49686;51.880;5.632;2023-01-19T11:30:55;2.10;99.90
63537;DHT22;49686;51.880;5.632;2023-01-19T11:33:24;2.10;99.90
63537;DHT22;49686;51.880;5.632;2023-01-19T11:36:01;2.10;99.90
63537;DHT22;49686;51.880;5.632;2023-01-19T11:38:28;2.20;99.90
63537;DHT22;49686;51.880;5.632;2023-01-19T11:40:56;2.10;99.90
63537;DHT22;49686;51.880;5.632;2023-01-19T11:43:26;2.20;99.90
63537;DHT22;49686;51.880;5.632;2023-01-19T11:46:01;2.30;99.90
63537;DHT22;49686;51.880;5.632;2023-01-19T11:48:31;2.20;99.90
63537;DHT22;49686;51.880;5.632;2023-01-19T11:51:01;2.30;99.90
63537;DHT22;49686;51.880;5.632;2023-01-19T11:53:32;2.30;99.90
63537;DHT22;49686;51.880;5.632;2023-01-19T11:56:01;2.40;99.90
63537;DHT22;49686;51.880;5.632;2023-01-19T11:58:29;2.50;99.90
63537;DHT22;49686;51.880;5.632;2023-01-19T12:01:02;2.50;99.90
63537;DHT22;49686;51.880;5.632;2023-01-19T12:03:34;2.60;99.90
63537;DHT22;49686;51.880;5.632;2023-01-19T12:06:04;2.80;99.90
63537;DHT22;49686;51.880;5.632;2023-01-19T12:08:34;2.90;99.90
63537;DHT22;49686;51.880;5.632;2023-01-19T12:11:03;3.00;99.90
63537;DHT22;49686;51.880;5.632;2023-01-19T12:13:31;2.70;99.90
63537;DHT22;49686;51.880;5.632;2023-01-19T12:16:03;2.60;99.90
63537;DHT22;49686;51.880;5.632;2023-01-19T12:18:35;2.90;99.90
63537;DHT22;49686;51.880;5.632;2023-01-19T12:21:03;2.80;99.90
63537;DHT22;49686;51.880;5.632;2023-01-19T12:23:43;2.60;99.90
63537;DHT22;49686;51.880;5.632;2023-01-19T12:26:31;2.70;99.90
63537;DHT22;49686;51.880;5.632;2023-01-19T12:29:04;2.90;99.90
63537;DHT22;49686;51.880;5.632;2023-01-19T12:31:33;2.90;99.90
63537;DHT22;49686;51.880;5.632;2023-01-19T12:34:29;3.00;99.90
63537;DHT22;49686;51.880;5.632;2023-01-19T12:37:05;3.00;99.90
63537;DHT22;49686;51.880;5.632;2023-01-19T12:39:32;3.10;99.90
63537;DHT22;49686;51.880;5.632;2023-01-19T12:42:11;3.10;99.90
63537;DHT22;49686;51.880;5.632;2023-01-19T12:44:39;3.00;99.90
63537;DHT22;49686;51.880;5.632;2023-01-19T12:47:19;3.10;99.90
63537;DHT22;49686;51.880;5.632;2023-01-19T12:49:51;3.30;99.90
63537;DHT22;49686;51.880;5.632;2023-01-19T12:52:23;3.50;99.90
63537;DHT22;49686;51.880;5.632;2023-01-19T12:54:58;3.30;99.90
63537;DHT22;49686;51.880;5.632;2023-01-19T12:57:29;3.30;99.90
63537;DHT22;49686;51.880;5.632;2023-01-19T12:59:58;3.20;99.90
63537;DHT22;49686;51.880;5.632;2023-01-19T13:02:42;3.10;99.90
63537;DHT22;49686;51.880;5.632;2023-01-19T13:05:24;3.00;99.90
63537;DHT22;49686;51.880;5.632;2023-01-19T13:08:19;3.00;99.90
63537;DHT22;49686;51.880;5.632;2023-01-19T13:13:41;2.90;99.90
63537;DHT22;49686;51.880;5.632;2023-01-19T13:16:49;2.80;99.90
63537;DHT22;49686;51.880;5.632;2023-01-19T13:19:34;2.70;99.90
63537;DHT22;49686;51.880;5.632;2023-01-19T13:25:07;2.40;99.90
63537;DHT22;49686;51.880;5.632;2023-01-19T13:27:36;2.20;99.90
63537;DHT22;49686;51.880;5.632;2023-01-19T13:30:10;2.10;99.90
63537;DHT22;49686;51.880;5.632;2023-01-19T13:32:39;2.10;99.90
63537;DHT22;49686;51.880;5.632;2023-01-19T13:35:13;2.20;99.90
63537;DHT22;49686;51.880;5.632;2023-01-19T13:37:43;2.40;99.90
63537;DHT22;49686;51.880;5.632;2023-01-19T13:40:16;2.50;99.90
63537;DHT22;49686;51.880;5.632;2023-01-19T13:42:46;2.50;99.90
63537;DHT22;49686;51.880;5.632;2023-01-19T13:45:30;2.50;99.90
63537;DHT22;49686;51.880;5.632;2023-01-19T13:47:59;2.70;99.90
63537;DHT22;49686;51.880;5.632;2023-01-19T13:50:30;2.70;99.90
63537;DHT22;49686;51.880;5.632;2023-01-19T13:52:58;2.60;99.90
63537;DHT22;49686;51.880;5.632;2023-01-19T13:55:26;2.70;99.90
63537;DHT22;49686;51.880;5.632;2023-01-19T13:57:53;2.70;99.90
63537;DHT22;49686;51.880;5.632;2023-01-19T14:00:22;2.80;99.90
63537;DHT22;49686;51.880;5.632;2023-01-19T14:02:53;3.00;99.90
63537;DHT22;49686;51.880;5.632;2023-01-19T14:05:22;3.10;99.90
63537;DHT22;49686;51.880;5.632;2023-01-19T14:08:00;3.20;99.90
63537;DHT22;49686;51.880;5.632;2023-01-19T14:10:33;3.30;99.90
63537;DHT22;49686;51.880;5.632;2023-01-19T14:13:10;3.20;99.90
63537;DHT22;49686;51.880;5.632;2023-01-19T14:15:48;3.10;99.90
63537;DHT22;49686;51.880;5.632;2023-01-19T14:18:24;2.90;99.90
63537;DHT22;49686;51.880;5.632;2023-01-19T14:20:55;2.90;99.90
63537;DHT22;49686;51.880;5.632;2023-01-19T14:23:43;2.90;99.90
63537;DHT22;49686;51.880;5.632;2023-01-19T14:26:38;2.80;99.90
63537;DHT22;49686;51.880;5.632;2023-01-19T14:29:11;2.70;99.90
63537;DHT22;49686;51.880;5.632;2023-01-19T14:31:42;2.60;99.90
63537;DHT22;49686;51.880;5.632;2023-01-19T14:34:28;2.30;99.90
63537;DHT22;49686;51.880;5.632;2023-01-19T14:36:55;2.20;99.90
63537;DHT22;49686;51.880;5.632;2023-01-19T14:39:26;2.30;99.90
63537;DHT22;49686;51.880;5.632;2023-01-19T14:41:56;2.10;99.90
63537;DHT22;49686;51.880;5.632;2023-01-19T14:44:28;1.90;99.90
63537;DHT22;49686;51.880;5.632;2023-01-19T14:46:56;2.00;99.90
63537;DHT22;49686;51.880;5.632;2023-01-19T14:49:32;2.00;99.90
63537;DHT22;49686;51.880;5.632;2023-01-19T14:52:00;1.80;99.90
63537;DHT22;49686;51.880;5.632;2023-01-19T14:54:32;1.80;99.90
63537;DHT22;49686;51.880;5.632;2023-01-19T14:57:00;1.70;99.90
63537;DHT22;49686;51.880;5.632;2023-01-19T14:59:27;1.60;99.90
63537;DHT22;49686;51.880;5.632;2023-01-19T15:01:53;1.60;99.90
63537;DHT22;49686;51.880;5.632;2023-01-19T15:04:20;1.50;99.90
63537;DHT22;49686;51.880;5.632;2023-01-19T15:06:47;1.40;99.90
63537;DHT22;49686;51.880;5.632;2023-01-19T15:09:15;1.40;99.90
63537;DHT22;49686;51.880;5.632;2023-01-19T15:11:46;1.30;99.90
63537;DHT22;49686;51.880;5.632;2023-01-19T15:14:14;1.20;99.90
63537;DHT22;49686;51.880;5.632;2023-01-19T15:16:42;1.10;99.90
63537;DHT22;49686;51.880;5.632;2023-01-19T15:19:13;1.20;99.90
63537;DHT22;49686;51.880;5.632;2023-01-19T15:21:41;1.20;99.90
63537;DHT22;49686;51.880;5.632;2023-01-19T15:24:08;1.20;99.90
63537;DHT22;49686;51.880;5.632;2023-01-19T15:26:36;1.20;99.90
63537;DHT22;49686;51.880;5.632;2023-01-19T15:29:14;1.20;99.90
63537;DHT22;49686;51.880;5.632;2023-01-19T15:31:41;1.20;99.90
63537;DHT22;49686;51.880;5.632;2023-01-19T15:34:11;1.20;99.90
63537;DHT22;49686;51.880;5.632;2023-01-19T15:36:38;1.20;99.90
63537;DHT22;49686;51.880;5.632;2023-01-19T15:39:04;1.20;99.90
63537;DHT22;49686;51.880;5.632;2023-01-19T15:41:31;1.10;99.90
63537;DHT22;49686;51.880;5.632;2023-01-19T15:43:58;1.10;99.90
63537;DHT22;49686;51.880;5.632;2023-01-19T15:46:27;1.00;99.90
63537;DHT22;49686;51.880;5.632;2023-01-19T15:48:53;1.00;99.90
63537;DHT22;49686;51.880;5.632;2023-01-19T15:51:23;0.90;99.90
63537;DHT22;49686;51.880;5.632;2023-01-19T15:53:50;0.90;99.90
63537;DHT22;49686;51.880;5.632;2023-01-19T15:56:19;0.80;99.90
63537;DHT22;49686;51.880;5.632;2023-01-19T15:58:46;0.70;99.90
63537;DHT22;49686;51.880;5.632;2023-01-19T16:01:14;0.60;99.90